Cuprum, Idaho
Current Conditions -  °F | °C
As of 9:51 PM on Wednesday 22 Oct 2014 (Local Time) from KMYL Reporting Station
Overcast Overcast  
Wind Chill: 42°   Ceiling: 5500
Heat Index: 47°   Visibility: 10mi
Dew Point: 34°   Wind: 10mph
Humidity: 61%   Direction: 140°SE
Pressure: 30.01"   Gusts: NA
Location:  44.9328°N, 116.572°W
Report Text: KMYL 230351Z AUTO 14009KT 10SM BKN055 OVC070 08/01 A3001 RMK AO2 SLP165 T00830011
Loading
Personal Weather Stations






























Interactive Weather Map
Tropical Storm Tracking
New forecast layout! Learn more

10-Day Weather Forecast

Advertisements
Track Severe Weather on mobile